Time;durP1;ratioP1;P1;durP2;ratioP2;P2;SDS_P1;SDS_P2;PMS_P1;PMS_P2;Temp;Humidity;BMP_temperature;BMP_pressure;BME280_temperature;BME280_humidity;BME280_pressure;Samples;Min_cycle;Max_cycle;Signal;HPM_P1;HPM_P2
2021/12/21 00:01:27;;;;;;;5.35;1.92;;;;;;;3.02;60.71;96977.28;5063258;28;20499;-70
2021/12/21 00:03:54;;;;;;;5.22;2.47;;;;;;;2.81;60.58;96954.47;5061456;28;20084;-71
2021/12/21 00:06:21;;;;;;;6.95;3.03;;;;;;;2.94;59.69;96978.91;5062307;28;20511;-71
2021/12/21 00:08:48;;;;;;;9.07;3.10;;;;;;;2.88;59.84;96965.72;5063829;28;20135;-67
2021/12/21 00:11:16;;;;;;;10.98;4.03;;;;;;;2.87;61.29;96977.78;5063145;28;20147;-68
2021/12/21 00:17:06;;;;;;;4.75;2.03;;;;;;;2.73;59.19;96968.94;5063469;28;20114;-71
2021/12/21 00:19:22;;;;;;;6.07;2.30;;;;;;;2.25;59.25;96949.13;5059807;28;20076;-68
2021/12/21 00:21:56;;;;;;;;;;;;;;;2.85;59.65;96993.72;5062064;28;20139;-71
2021/12/21 00:24:24;;;;;;;5.93;2.22;;;;;;;2.39;59.08;96925.19;5063674;28;20020;-71
2021/12/21 00:26:51;;;;;;;4.30;1.35;;;;;;;1.50;57.49;96832.84;5063695;28;20155;-71
2021/12/21 00:29:19;;;;;;;3.47;1.30;;;;;;;2.81;57.62;96999.00;5063481;28;20069;-71
2021/12/21 00:31:47;;;;;;;2.58;1.30;;;;;;;2.64;58.24;96981.81;5061705;28;20099;-71
2021/12/21 00:34:14;;;;;;;4.35;1.63;;;;;;;2.80;59.06;97008.34;5062928;28;20063;-72
2021/12/21 00:36:41;;;;;;;5.65;1.60;;;;;;;1.10;58.04;96762.28;5062894;28;20080;-71
2021/12/21 00:39:11;;;;;;;4.05;1.73;;;;;;;2.76;58.38;97012.06;5062944;28;20059;-68
2021/12/21 00:41:38;;;;;;;3.13;1.60;;;;;;;2.76;58.87;97001.13;5063174;28;20475;-71
2021/12/21 00:44:05;;;;;;;2.40;1.40;;;;;;;2.72;57.85;97005.59;5063089;28;20090;-67
2021/12/21 00:46:32;;;;;;;3.38;1.20;;;;;;;2.71;58.06;97002.09;5062728;28;20500;-67
2021/12/21 00:49:12;;;;;;;4.22;1.45;;;;;;;2.68;58.67;97004.66;5062660;28;20477;-69
2021/12/21 00:51:44;;;;;;;6.18;1.63;;;;;;;2.74;57.47;96992.44;5074878;28;20131;-67
2021/12/21 00:54:11;;;;;;;3.25;1.38;;;;;;;2.65;57.69;97005.28;5083060;28;20152;-71
2021/12/21 00:56:39;;;;;;;2.92;1.20;;;;;;;2.44;58.52;96976.97;5082032;28;20154;-69
2021/12/21 00:59:06;;;;;;;2.75;1.40;;;;;;;2.22;58.55;96952.50;5083375;28;20052;-67
2021/12/21 01:01:35;;;;;;;1.85;0.98;;;;;;;2.11;56.32;96952.00;5082367;28;20581;-69
2021/12/21 01:04:07;;;;;;;2.75;1.10;;;;;;;2.53;55.89;97007.88;5085301;28;20143;-67
2021/12/21 01:06:46;;;;;;;1.08;0.88;;;;;;;2.55;57.36;97006.41;5086568;28;20139;-69
2021/12/21 01:12:03;;;;;;;4.25;1.55;;;;;;;2.43;59.13;97002.69;5086209;28;20097;-69
2021/12/21 01:17:46;;;;;;;4.05;1.50;;;;;;;1.59;59.41;96862.91;5085939;28;20139;-67
2021/12/21 01:20:02;;;;;;;4.05;1.30;;;;;;;2.43;59.55;97019.09;5084369;28;20047;-69
2021/12/21 01:32:54;;;;;;;4.72;1.33;;;;;;;2.32;61.31;97001.38;5086360;28;20059;-69
2021/12/21 01:35:37;;;;;;;1.77;1.20;;;;;;;2.10;59.92;96971.44;5085786;28;20503;-70
2021/12/21 01:38:18;;;;;;;4.32;1.33;;;;;;;2.30;59.36;96976.31;5086009;28;20417;-67
2021/12/21 01:41:02;;;;;;;3.72;1.25;;;;;;;2.49;60.07;97001.41;5085595;28;20499;-70
2021/12/21 01:51:31;;;;;;;3.20;1.45;;;;;;;2.49;57.53;97012.34;5074494;28;20434;-71
2021/12/21 01:53:58;;;;;;;4.18;1.90;;;;;;;1.66;58.57;96871.41;5065145;28;20446;-68
2021/12/21 01:56:24;;;;;;;2.28;1.23;;;;;;;2.49;56.47;96995.94;5066306;28;20211;-70
2021/12/21 01:58:51;;;;;;;2.47;1.40;;;;;;;1.81;53.68;96894.72;5064262;28;20131;-68
2021/12/21 02:01:22;;;;;;;1.33;0.60;;;;;;;2.59;52.96;97006.59;5065172;28;20060;-70
2021/12/21 02:03:49;;;;;;;2.70;1.17;;;;;;;2.60;53.47;97016.38;5065628;28;20049;-69
2021/12/21 02:06:23;;;;;;;4.20;1.65;;;;;;;2.65;54.70;97008.03;5065508;28;20481;-68
2021/12/21 02:08:50;;;;;;;11.60;2.67;;;;;;;2.62;55.71;97022.34;5065254;28;20424;-70
2021/12/21 02:11:18;;;;;;;285.08;65.68;;;;;;;1.67;56.51;96842.19;5065492;28;20427;-68
2021/12/21 02:13:48;;;;;;;26.75;8.25;;;;;;;2.61;56.19;96998.84;5065149;28;20139;-70
2021/12/21 02:16:23;;;;;;;7.95;2.10;;;;;;;2.51;57.26;96993.72;5063825;28;20092;-67
2021/12/21 02:18:58;;;;;;;5.00;1.80;;;;;;;2.45;56.46;97009.44;5063843;28;20066;-67
2021/12/21 02:24:02;;;;;;;5.53;1.58;;;;;;;2.43;56.10;96997.22;5065186;28;20123;-70
2021/12/21 02:31:52;;;;;;;3.97;1.70;;;;;;;2.37;58.32;96990.31;5061949;28;20054;-69
2021/12/21 02:34:22;;;;;;;3.03;1.45;;;;;;;2.28;58.75;96994.94;5063253;28;20633;-70
2021/12/21 02:36:52;;;;;;;5.47;2.60;;;;;;;1.86;58.35;96916.44;5064914;28;20052;-69
2021/12/21 02:39:19;;;;;;;8.90;3.20;;;;;;;1.42;59.79;96868.31;5063198;28;20628;-68
2021/12/21 02:41:47;;;;;;;5.90;2.20;;;;;;;2.00;58.78;96938.97;5064546;28;20489;-70
2021/12/21 02:44:16;;;;;;;3.92;2.13;;;;;;;2.49;58.41;96999.50;5062880;28;20049;-69
2021/12/21 02:46:44;;;;;;;7.95;2.72;;;;;;;2.31;59.81;96977.94;5062793;28;20053;-67
2021/12/21 02:49:11;;;;;;;6.28;2.50;;;;;;;2.21;60.22;96961.81;5064498;28;20128;-70
2021/12/21 02:51:41;;;;;;;5.28;1.83;;;;;;;2.49;58.66;97004.97;5075923;28;20066;-70
2021/12/21 02:54:09;;;;;;;3.88;1.48;;;;;;;2.17;58.46;96971.75;5084560;28;20434;-71
2021/12/21 02:56:37;;;;;;;4.18;1.70;;;;;;;2.32;58.55;97001.38;5084668;28;20056;-70
2021/12/21 02:59:04;;;;;;;8.60;3.47;;;;;;;2.38;58.28;96994.66;5082941;28;20173;-70
2021/12/21 03:01:33;;;;;;;9.05;2.83;;;;;;;1.79;57.98;96932.50;5082972;28;20134;-70
2021/12/21 03:04:00;;;;;;;2.97;1.45;;;;;;;1.40;58.34;96849.53;5083090;28;20517;-70
2021/12/21 03:09:12;;;;;;;4.90;2.33;;;;;;;2.59;58.23;97023.00;5084798;28;20154;-67
2021/12/21 03:11:48;;;;;;;5.30;2.33;;;;;;;2.53;59.34;97021.53;5083977;28;20495;-68
2021/12/21 03:14:15;;;;;;;6.88;3.58;;;;;;;2.58;59.65;97026.81;5082736;28;20048;-68
2021/12/21 03:16:42;;;;;;;16.95;6.32;;;;;;;2.09;59.69;96926.94;5084582;28;20131;-68
2021/12/21 03:19:10;;;;;;;9.18;3.75;;;;;;;2.65;58.98;97024.44;5084209;28;20052;-70
2021/12/21 03:21:38;;;;;;;17.05;6.82;;;;;;;2.68;58.55;97026.53;5083866;28;20528;-67
2021/12/21 03:24:06;;;;;;;8.68;4.70;;;;;;;2.26;58.66;96983.53;5084251;28;20083;-70
2021/12/21 03:26:32;;;;;;;5.55;2.30;;;;;;;1.74;57.42;96891.69;5083127;28;20052;-69
2021/12/21 03:28:59;;;;;;;7.45;1.98;;;;;;;2.61;58.95;97026.19;5082034;28;20055;-69
2021/12/21 03:31:27;;;;;;;3.03;1.30;;;;;;;1.91;58.03;96916.28;5082832;28;20051;-69
2021/12/21 03:33:53;;;;;;;14.55;4.60;;;;;;;2.65;57.16;97027.97;5082457;28;20135;-70
2021/12/21 03:36:20;;;;;;;18.27;6.13;;;;;;;2.32;57.58;96969.41;5083673;28;20058;-70
2021/12/21 03:38:57;;;;;;;8.77;4.63;;;;;;;1.95;57.22;96947.28;5084480;28;20054;-67
2021/12/21 03:41:25;;;;;;;8.50;3.65;;;;;;;2.44;58.17;97004.28;5083892;28;20534;-68
2021/12/21 03:43:53;;;;;;;11.45;3.90;;;;;;;2.48;57.79;97025.19;5082087;28;20056;-70
2021/12/21 03:46:20;;;;;;;11.35;4.25;;;;;;;2.51;59.08;97031.97;5083452;28;20080;-70
2021/12/21 03:48:48;;;;;;;7.30;3.80;;;;;;;2.30;59.33;97015.38;5083775;28;20056;-70
2021/12/21 03:51:16;;;;;;;9.23;4.07;;;;;;;2.46;58.90;97007.53;5075338;28;20076;-69
2021/12/21 03:53:44;;;;;;;8.07;3.08;;;;;;;2.52;55.80;97028.09;5061990;28;20091;-71
2021/12/21 03:58:37;;;;;;;10.65;3.53;;;;;;;1.93;57.57;96922.25;5063854;28;20057;-71
2021/12/21 04:01:04;;;;;;;7.93;3.88;;;;;;;2.62;57.09;97022.34;5062288;28;20573;-70
2021/12/21 04:03:31;;;;;;;8.77;3.60;;;;;;;2.51;56.36;97054.63;5061938;28;20143;-69
2021/12/21 04:05:58;;;;;;;11.70;3.75;;;;;;;2.05;56.31;97007.09;5062991;28;20554;-69
2021/12/21 04:08:25;;;;;;;9.18;3.15;;;;;;;2.56;54.10;97045.50;5063564;28;20535;-68
2021/12/21 04:10:52;;;;;;;7.88;2.58;;;;;;;2.12;54.68;96980.91;5063364;28;20087;-69
2021/12/21 04:13:19;;;;;;;11.68;3.60;;;;;;;2.69;55.39;97055.47;5063770;28;20056;-70
2021/12/21 04:15:50;;;;;;;7.82;2.63;;;;;;;2.74;53.74;97060.78;5061670;28;20139;-70
2021/12/21 04:18:19;;;;;;;6.15;1.92;;;;;;;2.04;53.84;96989.91;5063440;28;20262;-70
2021/12/21 04:20:46;;;;;;;3.85;1.45;;;;;;;2.25;53.83;97023.72;5061917;28;20053;-68
2021/12/21 04:23:13;;;;;;;12.48;4.82;;;;;;;2.77;53.40;97090.22;5063335;28;20477;-68
2021/12/21 04:25:40;;;;;;;3.60;1.60;;;;;;;2.79;51.64;97077.06;5062971;28;20084;-69
2021/12/21 04:28:06;;;;;;;4.72;1.90;;;;;;;2.87;51.98;97073.53;5063743;28;20052;-68
2021/12/21 04:30:34;;;;;;;4.70;1.95;;;;;;;2.90;51.75;97072.88;5062377;28;20525;-67
2021/12/21 04:33:01;;;;;;;2.97;1.45;;;;;;;2.87;51.61;97079.81;5063222;28;20499;-69
2021/12/21 04:35:32;;;;;;;1.30;0.90;;;;;;;2.86;52.20;97078.19;5063204;28;20075;-70
2021/12/21 04:38:12;;;;;;;4.68;1.10;;;;;;;2.86;52.48;97071.94;5063118;28;20103;-69
2021/12/21 04:40:48;;;;;;;1.65;1.00;;;;;;;2.12;54.31;97029.31;5066806;28;20072;-69
2021/12/21 04:43:14;;;;;;;7.50;1.42;;;;;;;2.30;54.68;97070.03;5066729;28;20060;-69
2021/12/21 04:45:41;;;;;;;2.80;1.02;;;;;;;2.51;55.33;97081.19;5065208;28;20131;-71
2021/12/21 04:48:08;;;;;;;4.03;1.55;;;;;;;2.68;53.72;97090.22;5066665;28;20139;-68
2021/12/21 04:50:35;;;;;;;4.78;0.90;;;;;;;0.87;51.52;96832.44;5067564;28;20478;-69
2021/12/21 04:53:01;;;;;;;2.83;0.90;;;;;;;1.54;51.10;96910.25;5087347;28;20056;-72
2021/12/21 04:55:28;;;;;;;2.08;1.00;;;;;;;2.15;51.25;97013.06;5086778;28;20142;-70
2021/12/21 04:57:56;;;;;;;1.52;0.80;;;;;;;2.26;51.96;97019.84;5086518;28;20791;-73
2021/12/21 05:00:23;;;;;;;4.03;1.20;;;;;;;2.68;52.43;97103.09;5086800;28;20163;-69
2021/12/21 05:02:50;;;;;;;5.45;1.75;;;;;;;0.17;52.32;96711.75;5085225;28;20135;-71
2021/12/21 05:05:17;;;;;;;1.85;0.88;;;;;;;2.67;52.19;97113.22;5086965;28;20097;-68
2021/12/21 05:07:48;;;;;;;1.42;0.90;;;;;;;2.62;51.20;97110.66;5086472;28;20487;-70
2021/12/21 05:10:15;;;;;;;0.93;0.80;;;;;;;2.69;50.45;97115.63;5086401;28;20086;-69
2021/12/21 05:12:42;;;;;;;4.05;1.65;;;;;;;0.86;50.60;96849.94;5086711;28;20183;-69
2021/12/21 05:15:08;;;;;;;3.47;1.73;;;;;;;2.62;51.22;97131.72;5086441;28;20289;-69
2021/12/21 05:17:35;;;;;;;3.00;0.90;;;;;;;2.23;51.53;97080.59;5086613;28;20076;-68
2021/12/21 05:20:03;;;;;;;3.78;0.90;;;;;;;2.41;52.16;97114.25;5086219;28;20051;-69
2021/12/21 05:22:30;;;;;;;1.63;1.00;;;;;;;1.21;50.89;96949.91;5086507;28;20054;-69
2021/12/21 05:24:57;;;;;;;3.30;1.40;;;;;;;1.78;51.84;97060.00;5085974;28;20495;-71
2021/12/21 05:27:24;;;;;;;4.25;1.00;;;;;;;1.59;51.83;97037.59;5086175;28;20521;-68
2021/12/21 05:29:51;;;;;;;3.08;0.90;;;;;;;1.77;51.60;97068.50;5084351;28;20095;-69
2021/12/21 05:32:17;;;;;;;3.25;0.98;;;;;;;2.21;51.92;97142.16;5086387;28;20168;-69
2021/12/21 05:34:44;;;;;;;4.07;1.13;;;;;;;2.18;51.58;97142.78;5086143;28;20056;-69
2021/12/21 05:37:11;;;;;;;5.13;1.40;;;;;;;2.24;50.97;97147.00;5086043;28;20134;-69
2021/12/21 05:39:57;;;;;;;3.42;1.58;;;;;;;2.28;51.34;97170.63;5086217;28;20058;-72
2021/12/21 05:42:25;;;;;;;2.83;1.70;;;;;;;1.92;51.30;97095.41;5085722;28;20052;-69
2021/12/21 05:44:51;;;;;;;5.28;1.65;;;;;;;2.25;51.28;97159.53;5085713;28;20079;-68
2021/12/21 05:47:18;;;;;;;7.28;3.10;;;;;;;2.15;52.14;97140.69;5085209;28;20048;-70
2021/12/21 05:49:46;;;;;;;7.18;3.00;;;;;;;2.23;51.70;97140.72;5084458;28;20052;-68
2021/12/21 05:52:12;;;;;;;9.73;3.35;;;;;;;1.75;51.64;97078.94;2130426;28;10002027;-70
2021/12/21 05:54:39;;;;;;;3.03;0.80;;;;;;;2.24;52.05;97179.78;5004788;28;20084;-72
2021/12/21 05:57:06;;;;;;;2.63;0.93;;;;;;;1.89;52.68;97112.41;5044658;28;20106;-71
2021/12/21 05:59:33;;;;;;;1.70;0.90;;;;;;;2.18;52.59;97170.91;5044758;28;20053;-70
2021/12/21 06:01:59;;;;;;;3.03;1.30;;;;;;;2.09;52.67;97177.44;5045838;28;20049;-67
2021/12/21 06:04:26;;;;;;;1.40;0.77;;;;;;;1.02;53.59;97006.56;5045605;28;20595;-66
2021/12/21 06:06:53;;;;;;;4.18;1.30;;;;;;;2.09;53.91;97200.09;5043723;28;20132;-69
2021/12/21 06:09:20;;;;;;;9.23;2.70;;;;;;;2.07;53.91;97190.63;5044729;28;20063;-70
2021/12/21 06:12:03;;;;;;;3.40;1.38;;;;;;;1.77;54.29;97128.56;5043726;28;20576;-71
2021/12/21 06:23:16;;;;;;;3.58;1.20;;;;;;;2.18;57.68;97216.56;5044872;28;20439;-70
2021/12/21 06:25:53;;;;;;;16.27;5.88;;;;;;;2.05;57.21;97185.47;5044964;28;20102;-71
2021/12/21 06:28:21;;;;;;;3.83;1.08;;;;;;;2.26;56.83;97215.81;5043178;28;20110;-68
2021/12/21 06:30:48;;;;;;;3.05;1.35;;;;;;;2.41;56.15;97209.94;5043148;28;20088;-69
2021/12/21 06:33:15;;;;;;;8.07;2.25;;;;;;;2.47;56.34;97212.22;5044560;28;20072;-67
2021/12/21 06:35:42;;;;;;;13.90;4.35;;;;;;;2.37;56.34;97225.34;5044163;28;20061;-68
2021/12/21 06:38:09;;;;;;;7.45;2.58;;;;;;;2.24;56.05;97166.13;5031164;28;20135;-64
2021/12/21 06:40:36;;;;;;;9.70;3.72;;;;;;;2.75;55.41;97223.78;5038670;28;20136;-63
2021/12/21 06:43:04;;;;;;;5.50;1.33;;;;;;;2.34;54.36;97185.78;5029942;28;20124;-65
2021/12/21 06:45:46;;;;;;;5.05;1.92;;;;;;;2.73;54.25;97239.69;5039013;28;20477;-64
2021/12/21 06:53:39;;;;;;;7.22;3.05;;;;;;;2.80;54.16;97253.69;5031979;28;20053;-66
2021/12/21 06:56:07;;;;;;;5.18;2.33;;;;;;;2.39;53.98;97187.56;5033696;28;20059;-68
2021/12/21 06:58:34;;;;;;;7.32;2.88;;;;;;;2.76;54.46;97239.03;5032382;28;20148;-67
2021/12/21 07:01:02;;;;;;;6.00;3.45;;;;;;;2.83;53.81;97215.56;5025707;28;20081;-71
2021/12/21 07:03:29;;;;;;;11.20;3.50;;;;;;;3.10;54.10;97269.25;5023638;28;20049;-73
2021/12/21 07:06:00;;;;;;;4.28;1.83;;;;;;;2.89;53.88;97222.50;5023294;28;20061;-68
2021/12/21 07:08:30;;;;;;;5.32;2.65;;;;;;;2.43;54.06;97128.44;5047165;28;20052;-65
2021/12/21 07:19:16;;;;;;;1.95;1.02;;;;;;;2.71;55.09;97277.47;5032838;28;20099;-67
2021/12/21 07:21:42;;;;;;;2.10;1.02;;;;;;;2.69;55.23;97328.91;5040825;28;20053;-64
2021/12/21 07:24:09;;;;;;;3.40;1.73;;;;;;;2.41;56.11;97256.38;5026019;28;20049;-65
2021/12/21 07:26:37;;;;;;;2.45;1.38;;;;;;;2.79;55.79;97282.16;5037524;28;20130;-66
2021/12/21 07:29:04;;;;;;;6.90;2.97;;;;;;;2.33;55.38;97199.75;5028333;28;20333;-69
2021/12/21 07:31:31;;;;;;;4.85;2.13;;;;;;;2.33;55.70;97194.28;5029351;28;20052;-67
2021/12/21 07:33:58;;;;;;;4.60;2.05;;;;;;;0.95;54.77;96983.59;5063077;28;20151;-59
2021/12/21 07:36:26;;;;;;;1.60;1.17;;;;;;;2.94;54.63;97292.72;5062776;28;20508;-67
2021/12/21 07:38:53;;;;;;;7.97;4.25;;;;;;;2.93;55.30;97274.66;5062444;28;20143;-65
2021/12/21 07:41:20;;;;;;;3.03;1.50;;;;;;;2.97;55.51;97292.09;5025140;28;20583;-67
2021/12/21 07:43:47;;;;;;;6.53;2.60;;;;;;;2.79;55.44;97280.25;5041108;28;20488;-65
2021/12/21 07:46:14;;;;;;;6.88;1.88;;;;;;;3.21;55.54;97289.75;5024662;28;20072;-70
2021/12/21 07:48:41;;;;;;;5.65;1.77;;;;;;;3.10;55.18;97293.88;5024827;28;20163;-62
2021/12/21 07:51:09;;;;;;;9.80;3.72;;;;;;;2.69;55.62;97241.41;5052888;28;20044;-61
2021/12/21 07:53:36;;;;;;;5.97;1.90;;;;;;;2.94;55.74;97262.63;5062365;28;20701;-62
2021/12/21 07:56:04;;;;;;;3.25;1.95;;;;;;;2.96;54.90;97320.53;5043322;28;20435;-60
2021/12/21 07:58:32;;;;;;;3.55;1.13;;;;;;;2.79;53.64;97313.06;5061099;28;20068;-68
2021/12/21 08:01:01;;;;;;;6.18;2.45;;;;;;;2.87;54.18;97330.66;5043943;28;20132;-63
2021/12/21 08:03:28;;;;;;;10.02;3.05;;;;;;;2.43;54.84;97238.56;5057439;28;20052;-63
2021/12/21 08:05:58;;;;;;;11.80;5.30;;;;;;;2.96;55.53;97323.28;5053971;28;20040;-69
2021/12/21 08:08:28;;;;;;;50.85;18.92;;;;;;;3.02;55.07;97361.13;5045945;28;20190;-65
2021/12/21 08:11:29;;;;;;;48.15;12.57;;;;;;;2.17;55.58;97184.88;5051323;28;20135;-65
2021/12/21 08:13:46;;;;;;;9.43;3.05;;;;;;;2.92;54.70;97281.28;5048663;28;20690;-61
2021/12/21 08:16:13;;;;;;;9.23;3.88;;;;;;;2.31;54.92;97245.75;5054188;28;20467;-64
2021/12/21 08:18:41;;;;;;;2.22;1.15;;;;;;;3.03;53.55;97326.38;5043703;28;20139;-66
2021/12/21 08:21:08;;;;;;;6.88;3.20;;;;;;;1.93;54.27;97162.56;5055780;28;20056;-71
2021/12/21 08:23:35;;;;;;;5.05;1.67;;;;;;;2.34;54.57;97234.19;5045079;28;20084;-66
2021/12/21 08:26:04;;;;;;;4.15;1.92;;;;;;;2.69;54.43;97296.09;5047023;28;20136;-66
2021/12/21 08:28:31;;;;;;;5.30;2.45;;;;;;;3.04;53.88;97330.72;5045039;28;20064;-66
2021/12/21 08:30:58;;;;;;;9.52;4.57;;;;;;;2.95;52.87;97327.16;5035563;28;20049;-70
2021/12/21 08:33:25;;;;;;;3.08;1.60;;;;;;;2.41;52.69;97207.19;5047986;28;20049;-70
2021/12/21 08:35:51;;;;;;;2.05;0.93;;;;;;;2.54;51.71;97195.38;5031108;28;20140;-67
2021/12/21 08:38:19;;;;;;;2.38;1.33;;;;;;;2.96;51.61;97244.75;5029309;28;20504;-72
2021/12/21 08:40:49;;;;;;;6.72;3.55;;;;;;;3.64;51.75;97399.41;5032469;28;20084;-66
2021/12/21 08:43:23;;;;;;;5.13;1.75;;;;;;;3.73;50.81;97334.53;5039546;28;20052;-67
2021/12/21 08:45:52;;;;;;;5.95;2.63;;;;;;;2.99;50.71;97240.56;5044048;28;20049;-66
2021/12/21 08:48:19;;;;;;;4.07;2.10;;;;;;;3.72;50.31;97341.91;5041726;28;20057;-67
2021/12/21 08:50:49;;;;;;;5.15;2.28;;;;;;;3.62;50.12;97336.72;5050242;28;20049;-66
2021/12/21 08:53:17;;;;;;;2.42;1.33;;;;;;;3.48;49.28;97325.09;5040006;28;20041;-65
2021/12/21 08:55:45;;;;;;;3.80;1.85;;;;;;;3.70;49.40;97322.25;5038467;28;20055;-62
2021/12/21 08:58:15;;;;;;;2.42;1.30;;;;;;;2.59;49.80;97135.88;5037918;28;20463;-62
2021/12/21 09:00:42;;;;;;;7.93;1.77;;;;;;;3.78;49.94;97334.38;5039303;28;20057;-66
2021/12/21 09:03:10;;;;;;;1.50;1.08;;;;;;;3.46;49.81;97319.16;5030496;28;20123;-67
2021/12/21 09:05:38;;;;;;;3.45;1.48;;;;;;;3.22;49.53;97299.59;5035907;28;20488;-66
2021/12/21 09:08:06;;;;;;;1.40;1.00;;;;;;;2.95;49.68;97299.78;5031020;28;20063;-65
2021/12/21 09:10:34;;;;;;;1.90;0.80;;;;;;;3.43;49.66;97360.03;5039799;28;20121;-67
2021/12/21 09:13:01;;;;;;;1.58;0.80;;;;;;;1.52;50.06;97054.41;5027071;28;20488;-69
2021/12/21 09:15:29;;;;;;;1.35;0.70;;;;;;;3.44;49.41;97400.78;5026622;28;20049;-65
2021/12/21 09:17:57;;;;;;;0.95;0.70;;;;;;;3.10;48.92;97258.31;5038030;28;20060;-63
2021/12/21 09:20:27;;;;;;;2.15;0.93;;;;;;;3.73;49.54;97346.25;5043641;28;20041;-66
2021/12/21 09:22:55;;;;;;;2.58;0.80;;;;;;;3.56;48.62;97342.66;5037166;28;20134;-64
2021/12/21 09:25:23;;;;;;;4.72;1.50;;;;;;;3.60;48.43;97322.56;5032083;28;20769;-68
2021/12/21 09:27:51;;;;;;;1.42;0.90;;;;;;;3.45;47.96;97320.25;5025181;28;20045;-69
2021/12/21 09:30:20;;;;;;;1.75;0.93;;;;;;;3.86;48.38;97342.59;5023865;28;20053;-67
2021/12/21 09:32:47;;;;;;;3.25;1.70;;;;;;;3.80;48.51;97343.88;5040275;28;20064;-72
2021/12/21 09:35:15;;;;;;;1.90;1.00;;;;;;;3.59;47.77;97353.78;5045796;28;20053;-72
2021/12/21 09:37:44;;;;;;;1.00;0.80;;;;;;;3.66;47.55;97331.44;5043142;28;20080;-65
2021/12/21 09:40:17;;;;;;;1.50;0.70;;;;;;;2.99;48.73;97229.63;5045166;28;20049;-68
2021/12/21 09:42:44;;;;;;;1.90;0.90;;;;;;;3.38;49.52;97325.41;5043158;28;20088;-65
2021/12/21 09:45:12;;;;;;;7.88;3.50;;;;;;;2.41;48.94;97177.13;5030312;28;20056;-63
2021/12/21 09:47:39;;;;;;;4.35;1.63;;;;;;;2.88;49.28;97305.72;5032198;28;20133;-65
2021/12/21 09:50:08;;;;;;;7.45;3.33;;;;;;;3.46;48.95;97338.31;5026671;28;20071;-68
2021/12/21 09:52:35;;;;;;;6.32;3.08;;;;;;;2.68;47.90;97239.81;5020512;28;20059;-67
2021/12/21 09:55:07;;;;;;;3.15;1.33;;;;;;;3.02;48.52;97272.75;5042826;28;20061;-67
2021/12/21 09:57:35;;;;;;;4.20;1.02;;;;;;;3.29;48.89;97342.91;5038231;28;20053;-63
2021/12/21 10:00:07;;;;;;;0.98;0.70;;;;;;;2.62;49.59;97252.00;5027974;28;20136;-67
2021/12/21 10:02:35;;;;;;;6.30;1.98;;;;;;;3.34;50.26;97338.09;5025283;28;20053;-65
2021/12/21 10:05:07;;;;;;;8.50;2.83;;;;;;;3.44;49.91;97343.28;5030412;28;20072;-68
2021/12/21 10:07:35;;;;;;;1.20;0.63;;;;;;;3.11;49.11;97311.94;5026197;28;20463;-68
2021/12/21 10:10:15;;;;;;;1.65;1.00;;;;;;;3.27;50.01;97351.44;5028289;28;20048;-68
2021/12/21 10:12:44;;;;;;;1.20;0.60;;;;;;;3.01;49.74;97353.25;5024135;28;20479;-67
2021/12/21 10:15:17;;;;;;;3.67;1.30;;;;;;;3.14;50.67;97341.41;5024104;28;20140;-68
2021/12/21 10:17:57;;;;;;;2.80;1.20;;;;;;;2.98;49.89;97294.50;5046577;28;20059;-67
2021/12/21 10:20:36;;;;;;;2.25;1.10;;;;;;;3.25;49.39;97333.72;5039725;28;20492;-65
2021/12/21 10:23:14;;;;;;;3.90;1.00;;;;;;;3.40;48.73;97334.09;5031631;28;20041;-64
2021/12/21 10:25:51;;;;;;;4.60;1.38;;;;;;;3.46;49.21;97338.31;5029622;28;20049;-63
2021/12/21 10:28:27;;;;;;;2.45;0.80;;;;;;;3.35;47.92;97331.47;5024375;28;20061;-69
2021/12/21 10:30:56;;;;;;;1.70;0.70;;;;;;;3.36;48.41;97322.16;5039616;28;20056;-62
2021/12/21 10:33:25;;;;;;;2.38;1.10;;;;;;;2.41;48.58;97163.47;5063994;28;20430;-69
2021/12/21 10:35:58;;;;;;;2.08;1.00;;;;;;;2.21;47.86;97101.16;5060564;28;20083;-66
2021/12/21 10:38:32;;;;;;;16.70;5.07;;;;;;;2.55;48.16;97175.91;5038281;28;20041;-64
2021/12/21 10:41:16;;;;;;;4.88;1.10;;;;;;;2.68;48.65;97171.44;5044250;28;20055;-69
2021/12/21 10:43:43;;;;;;;;;;;;;;;3.94;48.03;97330.03;5045369;28;20451;-73
2021/12/21 10:46:10;;;;;;;4.53;1.65;;;;;;;3.52;48.41;97274.06;5043734;28;20003;-72
2021/12/21 10:48:45;;;;;;;3.13;1.08;;;;;;;3.71;47.16;97329.34;5043864;28;20092;-68
2021/12/21 10:51:15;;;;;;;3.35;1.13;;;;;;;2.81;47.42;97193.19;5043225;28;20914;-73
2021/12/21 10:53:47;;;;;;;2.97;1.27;;;;;;;3.74;47.67;97334.19;5044056;28;20060;-74
2021/12/21 10:56:17;;;;;;;4.93;2.13;;;;;;;3.66;50.03;97343.19;5025682;28;20059;-68
2021/12/21 10:58:45;;;;;;;2.15;1.20;;;;;;;3.24;52.64;97334.84;5043811;28;20056;-68
2021/12/21 11:01:19;;;;;;;7.75;4.05;;;;;;;2.84;54.41;97298.44;5043357;28;20056;-74
2021/12/21 11:03:51;;;;;;;2.88;1.40;;;;;;;2.89;57.37;97339.34;5044135;28;20487;-74
2021/12/21 11:06:25;;;;;;;5.95;1.80;;;;;;;2.75;58.32;97341.38;5043687;28;20697;-68
2021/12/21 11:08:54;;;;;;;7.00;2.17;;;;;;;2.09;57.69;97281.25;5044086;28;20578;-68
2021/12/21 11:11:34;;;;;;;5.70;2.92;;;;;;;2.77;59.55;97352.78;5043072;28;20496;-75
2021/12/21 11:14:13;;;;;;;4.38;1.45;;;;;;;2.81;58.36;97349.09;5025776;28;20083;-74
2021/12/21 11:16:46;;;;;;;2.78;1.30;;;;;;;2.75;59.18;97387.88;5025353;28;20490;-75
2021/12/21 11:19:15;;;;;;;1.83;0.98;;;;;;;2.73;58.42;97357.28;5033484;28;20049;-69
2021/12/21 11:21:43;;;;;;;4.68;1.88;;;;;;;2.27;58.94;97283.81;5061379;28;20140;-62
2021/12/21 11:24:16;;;;;;;5.25;2.30;;;;;;;1.98;59.56;97227.97;5051745;28;20057;-63
2021/12/21 11:26:45;;;;;;;7.13;3.10;;;;;;;2.74;60.61;97331.53;5041961;28;20080;-66
2021/12/21 11:29:17;;;;;;;2.63;1.10;;;;;;;2.66;62.13;97351.44;5043048;28;20064;-61
2021/12/21 11:31:48;;;;;;;4.30;1.85;;;;;;;2.19;62.09;97242.75;5045130;28;20051;-68
2021/12/21 11:34:21;;;;;;;4.85;1.98;;;;;;;2.99;62.20;97333.59;5054735;28;20056;-63
2021/12/21 11:39:39;;;;;;;4.85;1.83;;;;;;;2.92;63.90;97349.66;5056862;28;20519;-64
2021/12/21 11:42:08;;;;;;;16.30;6.93;;;;;;;2.97;57.71;97335.84;5062928;28;20070;-69
2021/12/21 11:44:56;;;;;;;6.63;2.08;;;;;;;2.66;54.39;97318.63;5054605;28;20044;-70
2021/12/21 11:47:34;;;;;;;11.70;5.28;;;;;;;3.11;53.78;97359.25;5042615;28;20056;-65
2021/12/21 11:50:05;;;;;;;602.33;186.88;;;;;;;2.89;53.92;97309.25;5046761;28;20124;-64
2021/12/21 11:52:47;;;;;;;11.90;6.85;;;;;;;2.45;52.59;97241.00;5046176;28;20052;-63
2021/12/21 11:55:15;;;;;;;7.75;4.25;;;;;;;3.17;53.25;97329.81;5055009;28;20537;-64
2021/12/21 11:57:49;;;;;;;2.50;1.27;;;;;;;3.24;53.70;97368.47;5062710;28;20056;-69
2021/12/21 12:00:16;;;;;;;4.10;2.10;;;;;;;3.28;54.41;97350.31;5052050;28;20048;-64
2021/12/21 12:02:44;;;;;;;2.38;1.52;;;;;;;3.37;54.02;97340.19;5032896;28;20060;-60
2021/12/21 12:05:25;;;;;;;4.72;1.88;;;;;;;3.21;52.05;97314.38;4985579;28;20491;-63
2021/12/21 12:08:12;;;;;;;5.82;2.10;;;;;;;3.17;52.64;97335.31;5005331;28;20114;-62
2021/12/21 12:10:47;;;;;;;2.28;1.55;;;;;;;3.61;52.24;97329.66;4996360;28;20056;-70
2021/12/21 12:13:26;;;;;;;5.50;2.38;;;;;;;3.46;50.76;97293.69;5002570;28;20316;-65
2021/12/21 12:15:58;;;;;;;7.30;3.50;;;;;;;3.43;49.18;97289.63;4998706;28;20721;-62
2021/12/21 12:18:47;;;;;;;4.83;2.57;;;;;;;3.90;49.58;97376.47;5012254;28;20247;-63
2021/12/21 12:21:22;;;;;;;5.47;2.03;;;;;;;3.81;48.22;97340.00;5010499;28;20041;-64
2021/12/21 12:23:54;;;;;;;3.88;2.78;;;;;;;3.91;47.22;97353.41;5004622;28;20063;-64
2021/12/21 12:26:30;;;;;;;8.00;4.23;;;;;;;4.10;47.74;97353.91;4979163;28;20502;-67
2021/12/21 12:29:10;;;;;;;6.65;3.55;;;;;;;4.28;47.63;97388.41;4976894;28;20433;-65
2021/12/21 12:31:40;;;;;;;2.67;1.33;;;;;;;4.18;47.28;97355.84;5006757;28;20048;-67
2021/12/21 12:34:08;;;;;;;3.17;2.08;;;;;;;4.04;48.94;97326.97;5016620;28;20054;-71
2021/12/21 12:36:51;;;;;;;2.03;1.48;;;;;;;4.28;49.01;97366.47;5018951;28;20490;-69
2021/12/21 12:39:34;;;;;;;1.95;1.17;;;;;;;4.23;49.64;97358.44;5016568;28;20056;-68
2021/12/21 12:42:11;;;;;;;;;;;;;;;3.95;47.99;97373.53;5019267;28;20641;-63
2021/12/21 12:44:41;;;;;;;3.63;1.92;;;;;;;3.96;49.25;97380.66;5016107;28;19924;-64
2021/12/21 12:47:14;;;;;;;10.82;2.90;;;;;;;3.84;49.41;97371.44;4993340;28;20467;-66
2021/12/21 12:49:52;;;;;;;7.97;3.40;;;;;;;3.91;50.49;97375.31;4998963;28;20152;-65
2021/12/21 12:52:28;;;;;;;9.10;3.60;;;;;;;3.48;50.47;97329.78;5005558;28;20048;-68
2021/12/21 12:55:04;;;;;;;4.82;2.50;;;;;;;3.25;50.45;97293.47;4975452;28;20171;-68
2021/12/21 12:57:48;;;;;;;9.20;3.85;;;;;;;3.82;50.15;97374.50;4989063;28;20059;-65
2021/12/21 13:00:19;;;;;;;2.53;1.83;;;;;;;3.32;46.92;97312.97;5011472;28;20546;-67